Georgetown, SC

11:34 AM EDT on May 29, 2015 (GMT -0400)
Spring Gully | | Change Station
CLOSE
Current Station
Personal Weather Station
Location: Georgetown, SC
Elevation: 20 ft
Nearby Weather Stations

Elev 20 ft 33.38 °N, 79.42 °W | Updated 7 minutes ago

Mostly Cloudy
Mostly Cloudy
83.0 °F
Feels Like 88 °F
N
2.0
Wind Variable Wind from SSW
Gusts 4.0 mph

Today
High -- | Low -- °F
--% Chance of Precip.
Yesterday
High -- | Low -- °F
Precip. -- in
6:09 AM 8:20 PM
Waxing Gibbous, 84% visible
Pressure 30.25 in
Visibility 10.0 miles
Clouds Scattered Clouds 2500 ft
Overcast 5000 ft
Heat Index 88 °F
Dew Point 72 °F
Humidity 70%
Rainfall 0.00 in
Snow Depth Not available.
UV 4 out of 12
Pollen 7.10 out of 12
Air Quality Not available.
Flu Activity Local Activity
METAR KGGE 291535Z AUTO 07006KT 10SM SCT025 OVC050 26/21 A3025 RMK AO2

More Conditions Fewer Conditions

Pressure 30.25 in
Visibility 10.0 miles
Clouds Scattered Clouds 2500 ft
Overcast 5000 ft
Heat Index 88 °F
Dew Point 72 °F
Humidity 70%
Rainfall 0.00 in
Snow Depth Not available.
UV 4 out of 12
Pollen 7.10 out of 12
Air Quality Not available.
Flu Activity Local Activity
METAR KGGE 291535Z AUTO 07006KT 10SM SCT025 OVC050 26/21 A3025 RMK AO2

More Conditions Fewer Conditions

10-Day Weather Forecast

Almanac

Astronomy

May. 29, 2015 Rise Set
Actual Time
Civil Twilight
Nautical Twilight
Astronomical Twilight
Moon
Length of Visible Light
Length of Day
Tomorrow will be .
, % of the Moon is Illuminated

Today's Extremes

State Highs State Lows

Community

WunderPhotos

Upload Photos

1,825,292 photos uploaded!

WunderBlogs® & News

Nearby

Air Quality

  Air Quality AQ Index Pollutant
Not available.

Snow Depth

Station Depth Elevation

Earthquake Activity

City Distance Mag. Time & Date
Minimum magnitude displayed is 2.5.

Coastal Water Temperatures

Place Temperature

Stations

Nearby Weather Stations

Station Location Temp. Windchill Dew Point Humidity Wind Precip. Elev Updated Type